Terminal Aerodrome Forecast
Issued by NWS

Home | Current Version | Previous Version | Text Only | Print | Product List | Glossary On
Versions: 1 2 3 4 5 6 7 8 9 10 11 12 13 14
195
FTUS45 KABQ 240530
TAFGUP
TAF
KGUP 240530Z 2406/2506 15008KT P6SM VCSH BKN090
     FM240900 VRB04KT P6SM BKN150
     FM242000 16008KT P6SM VCTS BKN080CB
      TEMPO 2421/2501 VRB15G25KT -TSRA BKN060CB
     FM250100 21010KT P6SM BKN100=

USA.gov is the U.S. government's official web portal to all federal, state and local government web resources and services.